Terminal Aerodrome Forecast
Issued by NWS

Home | Current Version | Previous Version | Graphics & Text | Print | Product List | Glossary On
Versions: 1 2 3 4 5 6 7 8 9 10 11 12 13 14 15 16 17 18 19
000
FTUS43 KTOP 171100
TAFFOE
TAF
KFOE 171120Z 1712/1812 09005KT P6SM SCT040 BKN250
     FM171500 12009KT P6SM SCT035
     FM172100 14010KT P6SM VCTS SCT040CB BKN200
     FM172200 12008KT 5SM -RA VCTS BKN035CB=

USA.gov is the U.S. government's official web portal to all federal, state and local government web resources and services.